Time;durP1;ratioP1;P1;durP2;ratioP2;P2;SDS_P1;SDS_P2;PMS_P1;PMS_P2;Temp;Humidity;BMP_temperature;BMP_pressure;BME280_temperature;BME280_humidity;BME280_pressure;Samples;Min_cycle;Max_cycle;Signal;HPM_P1;HPM_P2
2023/07/08 00:01:02;;;;;;;;;;;;;;;22.87;49.25;100108.56;4505377;31;35098;-77
2023/07/08 00:03:31;;;;;;;;;;;;;;;22.74;49.61;100103.97;4494913;31;34190;-77
2023/07/08 00:05:59;;;;;;;;;;;;;;;22.89;49.03;100109.34;4506622;31;34052;-77
2023/07/08 00:08:29;;;;;;;;;;;;;;;22.76;49.58;100106.50;4509607;31;34244;-76
2023/07/08 00:10:59;;;;;;;;;;;;;;;22.70;49.14;100106.88;4494618;31;33216;-77
2023/07/08 00:13:33;;;;;;;;;;;;;;;22.48;50.50;100110.72;4495730;31;33900;-77
2023/07/08 00:16:05;;;;;;;;;;;;;;;22.54;50.18;100107.75;4506738;31;34286;-77
2023/07/08 00:18:35;;;;;;;;;;;;;;;22.76;48.76;100104.75;4508942;31;33816;-76
2023/07/08 00:21:09;;;;;;;;;;;;;;;22.36;50.96;100108.78;4493747;31;33638;-75
2023/07/08 00:23:38;;;;;;;;;;;;;;;22.27;51.45;100106.62;4499845;31;35009;-76
2023/07/08 00:26:10;;;;;;;;;;;;;;;22.39;50.67;100107.75;4500104;31;34805;-76
2023/07/08 00:28:40;;;;;;;;;;;;;;;22.35;51.39;100110.56;4505732;31;34565;-77
2023/07/08 00:31:09;;;;;;;;;;;;;;;22.28;51.23;100103.91;4498031;31;32835;-77
2023/07/08 00:33:38;;;;;;;;;;;;;;;22.19;51.69;100100.91;4506105;31;33662;-76
2023/07/08 00:36:09;;;;;;;;;;;;;;;22.36;50.50;100103.50;4495454;31;33888;-76
2023/07/08 00:38:44;;;;;;;;;;;;;;;22.09;51.82;100101.37;4495975;31;34203;-76
2023/07/08 00:41:15;;;;;;;;;;;;;;;22.12;51.85;100101.22;4499528;31;34331;-76
2023/07/08 00:43:47;;;;;;;;;;;;;;;22.27;50.99;100101.34;4503245;31;36690;-74
2023/07/08 00:46:27;;;;;;;;;;;;;;;22.04;51.51;100100.78;4504050;31;33884;-78
2023/07/08 00:49:01;;;;;;;;;;;;;;;22.29;50.15;100110.03;4492654;31;34053;-77
2023/07/08 00:51:30;;;;;;;;;;;;;;;22.09;51.52;100096.09;4499639;31;33493;-77
2023/07/08 00:54:01;;;;;;;;;;;;;;;21.98;51.37;100098.47;4509184;31;34369;-77
2023/07/08 00:56:30;;;;;;;;;;;;;;;22.28;50.49;100101.28;4498666;31;32853;-77
2023/07/08 00:59:02;;;;;;;;;;;;;;;22.19;50.40;100098.25;4504684;31;34601;-76
2023/07/08 01:01:32;;;;;;;;;;;;;;;21.94;51.32;100097.78;4502845;31;33689;-76
2023/07/08 01:04:03;;;;;;;;;;;;;;;21.94;51.40;100094.31;4509388;31;35007;-76
2023/07/08 01:06:33;;;;;;;;;;;;;;;21.99;51.20;100100.19;4497280;31;35367;-76
2023/07/08 01:09:04;;;;;;;;;;;;;;;21.97;50.28;100095.94;4493254;31;34503;-76
2023/07/08 01:11:35;;;;;;;;;;;;;;;21.85;51.05;100102.72;4494509;31;33174;-76
2023/07/08 01:14:04;;;;;;;;;;;;;;;22.02;50.94;100100.03;4498137;31;35219;-76
2023/07/08 01:16:34;;;;;;;;;;;;;;;21.89;50.61;100106.88;4501434;31;34325;-76
2023/07/08 01:19:04;;;;;;;;;;;;;;;21.90;50.72;100096.25;4506037;31;34487;-78
2023/07/08 01:21:34;;;;;;;;;;;;;;;22.00;49.39;100099.25;4503622;31;34701;-75
2023/07/08 01:24:07;;;;;;;;;;;;;;;21.90;49.61;100106.81;4497698;31;33638;-77
2023/07/08 01:26:38;;;;;;;;;;;;;;;21.98;48.99;100102.91;4497033;31;32483;-77
2023/07/08 01:29:14;;;;;;;;;;;;;;;21.67;51.07;100104.53;4502606;31;34835;-75
2023/07/08 01:31:52;;;;;;;;;;;;;;;21.84;49.54;100099.22;4506035;31;34057;-75
2023/07/08 01:34:20;;;;;;;;;;;;;;;21.78;50.87;100101.34;4495378;31;33718;-75
2023/07/08 01:36:52;;;;;;;;;;;;;;;21.91;49.38;100100.56;4498115;31;32772;-76
2023/07/08 01:39:23;;;;;;;;;;;;;;;21.85;49.39;100092.16;4504679;31;35234;-76
2023/07/08 01:41:54;;;;;;;;;;;;;;;21.92;49.15;100096.16;4493909;31;33196;-75
2023/07/08 01:44:23;;;;;;;;;;;;;;;21.82;49.38;100092.28;4494109;31;33485;-75
2023/07/08 01:46:56;;;;;;;;;;;;;;;21.61;50.26;100094.31;4495299;31;35735;-76
2023/07/08 01:49:25;;;;;;;;;;;;;;;21.69;49.90;100100.03;4492767;31;33948;-77
2023/07/08 01:51:54;;;;;;;;;;;;;;;21.86;49.07;100101.78;4501676;31;33327;-75
2023/07/08 01:54:24;;;;;;;;;;;;;;;21.76;48.88;100092.63;4496429;31;34073;-77
2023/07/08 01:56:56;;;;;;;;;;;;;;;21.81;49.15;100095.88;4498721;31;34131;-76
2023/07/08 01:59:27;;;;;;;;;;;;;;;21.40;50.96;100091.84;4493412;31;34396;-76
2023/07/08 02:01:59;;;;;;;;;;;;;;;21.49;50.17;100094.00;4502207;31;33497;-76
2023/07/08 02:04:30;;;;;;;;;;;;;;;21.30;51.30;100082.66;4509830;31;33555;-76
2023/07/08 02:06:59;;;;;;;;;;;;;;;21.41;51.01;100082.16;4496278;31;33802;-76
2023/07/08 02:09:30;;;;;;;;;;;;;;;21.48;49.68;100086.16;4495855;31;34004;-76
2023/07/08 02:12:02;;;;;;;;;;;;;;;21.08;51.55;100091.66;4496984;31;34104;-76
2023/07/08 02:14:31;;;;;;;;;;;;;;;21.56;49.66;100089.25;4498548;31;34227;-77
2023/07/08 02:17:05;;;;;;;;;;;;;;;21.42;50.44;100094.41;4500464;31;34958;-77
2023/07/08 02:19:34;;;;;;;;;;;;;;;21.31;50.19;100090.50;4493013;31;34102;-75
2023/07/08 02:22:05;;;;;;;;;;;;;;;21.40;50.38;100085.72;4493161;31;32710;-77
2023/07/08 02:24:34;;;;;;;;;;;;;;;21.28;50.18;100097.72;4498885;31;34538;-76
2023/07/08 02:27:08;;;;;;;;;;;;;;;21.28;49.91;100098.56;4500320;31;35726;-77
2023/07/08 02:29:38;;;;;;;;;;;;;;;21.07;51.19;100102.31;4493963;31;34876;-75
2023/07/08 02:32:09;;;;;;;;;;;;;;;21.23;50.93;100097.94;4500957;31;33577;-77
2023/07/08 02:34:38;;;;;;;;;;;;;;;21.19;50.89;100092.88;4493622;31;33175;-75
2023/07/08 02:37:09;;;;;;;;;;;;;;;21.14;50.50;100093.12;4499033;31;34308;-75
2023/07/08 02:39:39;;;;;;;;;;;;;;;21.11;50.69;100090.66;4509016;31;35257;-76
2023/07/08 02:42:08;;;;;;;;;;;;;;;21.20;50.69;100098.09;4503192;31;33932;-75
2023/07/08 02:44:37;;;;;;;;;;;;;;;21.19;49.97;100096.41;4501041;31;34210;-75
2023/07/08 02:47:06;;;;;;;;;;;;;;;20.98;50.61;100100.12;4503664;31;34274;-75
2023/07/08 02:49:42;;;;;;;;;;;;;;;21.19;50.02;100100.81;4499051;31;35545;-76
2023/07/08 02:52:13;;;;;;;;;;;;;;;21.07;50.53;100103.16;4492939;31;33251;-76
2023/07/08 02:54:46;;;;;;;;;;;;;;;21.10;50.79;100108.25;4491598;31;34759;-75
2023/07/08 02:57:16;;;;;;;;;;;;;;;21.00;50.58;100106.19;4491995;31;34137;-76
2023/07/08 02:59:45;;;;;;;;;;;;;;;21.11;50.21;100111.75;4498190;31;34121;-75
2023/07/08 03:02:14;;;;;;;;;;;;;;;21.10;50.01;100107.41;4501222;31;33573;-76
2023/07/08 03:04:43;;;;;;;;;;;;;;;20.75;52.05;100111.78;4509483;31;33758;-76
2023/07/08 03:07:12;;;;;;;;;;;;;;;20.85;51.52;100106.00;4505165;31;34549;-77
2023/07/08 03:09:43;;;;;;;;;;;;;;;20.92;51.13;100116.22;4496385;31;34103;-76
2023/07/08 03:12:19;;;;;;;;;;;;;;;21.00;50.57;100108.81;4505959;31;33590;-76
2023/07/08 03:14:48;;;;;;;;;;;;;;;20.96;50.69;100108.09;4498209;31;34317;-75
2023/07/08 03:17:19;;;;;;;;;;;;;;;21.16;49.60;100106.25;4505024;31;34344;-76
2023/07/08 03:19:48;;;;;;;;;;;;;;;21.04;50.46;100105.06;4495325;31;33863;-77
2023/07/08 03:22:21;;;;;;;;;;;;;;;20.98;50.44;100110.66;4501229;31;33699;-75
2023/07/08 03:24:50;;;;;;;;;;;;;;;20.79;51.34;100116.00;4493756;31;34342;-75
2023/07/08 03:27:22;;;;;;;;;;;;;;;21.09;50.00;100116.25;4495992;31;35211;-77
2023/07/08 03:29:52;;;;;;;;;;;;;;;21.05;50.58;100117.34;4495429;31;34060;-77
2023/07/08 03:32:25;;;;;;;;;;;;;;;21.17;49.64;100116.75;4497605;31;33231;-75
2023/07/08 03:34:54;;;;;;;;;;;;;;;20.91;50.73;100120.66;4499460;31;34065;-75
2023/07/08 03:37:24;;;;;;;;;;;;;;;20.76;51.69;100122.28;4495028;31;34200;-75
2023/07/08 03:39:52;;;;;;;;;;;;;;;21.04;49.91;100124.38;4492849;31;33738;-76
2023/07/08 03:42:25;;;;;;;;;;;;;;;20.89;51.06;100118.09;4494267;31;33376;-75
2023/07/08 03:44:54;;;;;;;;;;;;;;;20.81;51.81;100122.03;4499558;31;34057;-75
2023/07/08 03:47:23;;;;;;;;;;;;;;;21.02;50.80;100128.03;4508068;31;35382;-77
2023/07/08 03:49:54;;;;;;;;;;;;;;;20.90;51.31;100129.50;4506197;31;34190;-75
2023/07/08 03:52:26;;;;;;;;;;;;;;;20.96;50.90;100125.72;4497286;31;34260;-75
2023/07/08 03:54:56;;;;;;;;;;;;;;;21.08;50.34;100123.31;4496316;31;34615;-77
2023/07/08 03:57:37;;;;;;;;;;;;;;;21.11;50.25;100122.31;4507780;31;32985;-76
2023/07/08 04:00:17;;;;;;;;;;;;;;;20.92;51.47;100126.78;4497246;31;34022;-76
2023/07/08 04:02:46;;;;;;;;;;;;;;;21.28;50.18;100124.94;4493835;31;33526;-76
2023/07/08 04:05:22;;;;;;;;;;;;;;;21.36;49.75;100128.97;4495530;31;33833;-77
2023/07/08 04:07:51;;;;;;;;;;;;;;;21.45;50.04;100120.62;4497563;31;34875;-76
2023/07/08 04:10:23;;;;;;;;;;;;;;;21.42;50.85;100126.06;4499890;31;33327;-74
2023/07/08 04:13:05;;;;;;;;;;;;;;;21.59;49.29;100131.34;4505602;31;33018;-76
2023/07/08 04:15:34;;;;;;;;;;;;;;;21.70;48.88;100123.72;4508995;31;33978;-75
2023/07/08 04:18:07;;;;;;;;;;;;;;;21.83;48.20;100120.44;4497151;31;34199;-75
2023/07/08 04:20:42;;;;;;;;;;;;;;;21.76;48.43;100125.19;4498802;31;34368;-76
2023/07/08 04:23:31;;;;;;;;;;;;;;;21.80;48.54;100131.16;4499893;31;33034;-75
2023/07/08 04:26:06;;;;;;;;;;;;;;;21.97;47.51;100132.91;4494274;31;34555;-76
2023/07/08 04:28:37;;;;;;;;;;;;;;;22.07;47.13;100132.31;4494069;31;34592;-75
2023/07/08 04:31:08;;;;;;;;;;;;;;;22.07;47.60;100136.75;4500579;31;34340;-75
2023/07/08 04:33:37;;;;;;;;;;;;;;;22.15;47.69;100131.91;4510914;31;34034;-77
2023/07/08 04:36:09;;;;;;;;;;;;;;;22.30;47.44;100127.59;4500112;31;33318;-76
2023/07/08 04:38:38;;;;;;;;;;;;;;;22.63;46.17;100131.97;4495903;31;34172;-76
2023/07/08 04:41:11;;;;;;;;;;;;;;;22.58;46.70;100135.72;4497609;31;34911;-76
2023/07/08 04:43:41;;;;;;;;;;;;;;;23.09;46.04;100132.88;4499188;31;34469;-76
2023/07/08 04:46:16;;;;;;;;;;;;;;;24.04;43.01;100135.16;4505445;31;32405;-76
2023/07/08 04:48:45;;;;;;;;;;;;;;;24.88;40.84;100146.66;4507975;31;34186;-77
2023/07/08 04:51:20;;;;;;;;;;;;;;;25.38;40.59;100139.81;4492561;31;33586;-75
2023/07/08 04:54:00;;;;;;;;;;;;;;;26.17;38.32;100144.09;4493435;31;33372;-76
2023/07/08 04:56:36;;;;;;;;;;;;;;;26.11;38.30;100144.50;4499645;31;34919;-76
2023/07/08 04:59:08;;;;;;;;;;;;;;;26.97;37.25;100146.31;4493934;31;34089;-76
2023/07/08 05:01:37;;;;;;;;;;;;;;;27.58;35.48;100142.66;4498395;31;34171;-76
2023/07/08 05:04:06;;;;;;;;;;;;;;;28.06;34.93;100138.00;4491611;31;33169;-76
2023/07/08 05:06:40;;;;;;;;;;;;;;;28.52;34.58;100146.84;4497531;31;35230;-78
2023/07/08 05:09:09;;;;;;;;;;;;;;;28.91;33.01;100147.22;4497070;31;33914;-77
2023/07/08 05:11:39;;;;;;;;;;;;;;;28.85;33.74;100145.03;4502112;31;34240;-78
2023/07/08 05:14:09;;;;;;;;;;;;;;;29.18;33.42;100152.13;4497232;31;32579;-76
2023/07/08 05:16:39;;;;;;;;;;;;;;;29.32;33.53;100158.97;4494673;31;33089;-77
2023/07/08 05:19:12;;;;;;;;;;;;;;;29.59;32.84;100161.12;4498455;31;33793;-77
2023/07/08 05:21:48;;;;;;;;;;;;;;;29.65;32.54;100160.62;4493529;31;34240;-76
2023/07/08 05:24:16;;;;;;;;;;;;;;;29.62;32.65;100166.19;4499258;31;33480;-77
2023/07/08 05:26:46;;;;;;;;;;;;;;;29.07;34.00;100166.37;4495248;31;33962;-76
2023/07/08 05:29:15;;;;;;;;;;;;;;;28.47;34.35;100170.41;4493542;31;33799;-76
2023/07/08 05:31:45;;;;;;;;;;;;;;;27.80;35.60;100160.50;4494364;31;34135;-77
2023/07/08 05:34:16;;;;;;;;;;;;;;;27.90;35.24;100164.19;4499653;31;33935;-77
2023/07/08 05:36:45;;;;;;;;;;;;;;;27.20;36.98;100165.91;4499625;31;35141;-77
2023/07/08 05:39:17;;;;;;;;;;;;;;;25.82;39.88;100174.91;4507982;31;33554;-77
2023/07/08 05:41:53;;;;;;;;;;;;;;;26.37;37.94;100174.59;4501647;31;34815;-76
2023/07/08 05:44:23;;;;;;;;;;;;;;;25.77;39.84;100177.88;4509269;31;32888;-76
2023/07/08 05:46:55;;;;;;;;;;;;;;;25.78;39.18;100176.91;4502227;31;35113;-76
2023/07/08 05:49:24;;;;;;;;;;;;;;;25.77;39.90;100178.72;4506782;31;34299;-78
2023/07/08 05:51:53;;;;;;;;;;;;;;;25.78;40.64;100176.91;4499317;31;34897;-75
2023/07/08 05:54:23;;;;;;;;;;;;;;;26.36;40.02;100172.91;4493534;31;33149;-76
2023/07/08 05:56:54;;;;;;;;;;;;;;;26.59;39.10;100176.56;4497983;31;34257;-77
2023/07/08 05:59:25;;;;;;;;;;;;;;;27.14;36.99;100178.81;4499000;31;34720;-78
2023/07/08 06:01:57;;;;;;;;;;;;;;;27.43;37.30;100180.16;4493233;31;33185;-76
2023/07/08 06:04:28;;;;;;;;;;;;;;;27.75;36.79;100178.69;4493820;31;32640;-78
2023/07/08 06:06:57;;;;;;;;;;;;;;;27.94;36.32;100181.66;4494931;31;34307;-76
2023/07/08 06:09:25;;;;;;;;;;;;;;;27.99;36.23;100168.78;4514911;31;33688;-78
2023/07/08 06:11:56;;;;;;;;;;;;;;;27.85;36.47;100171.69;4509373;31;34710;-77
2023/07/08 06:14:27;;;;;;;;;;;;;;;27.59;37.38;100179.00;4508454;31;33338;-77
2023/07/08 06:17:02;;;;;;;;;;;;;;;27.52;37.82;100185.75;4496632;31;33852;-77
2023/07/08 06:19:31;;;;;;;;;;;;;;;27.42;37.64;100189.16;4493323;31;34052;-76
2023/07/08 06:22:00;;;;;;;;;;;;;;;27.38;37.98;100189.50;4498417;31;34229;-77
2023/07/08 06:24:51;;;;;;;;;;;;;;;27.53;36.24;100185.66;4493365;31;33221;-78
2023/07/08 06:27:21;;;;;;;;;;;;;;;27.27;38.15;100184.09;4499052;31;34372;-75
2023/07/08 06:29:55;;;;;;;;;;;;;;;27.24;38.21;100183.37;4502384;31;34072;-76
2023/07/08 06:32:24;;;;;;;;;;;;;;;27.22;38.60;100190.63;4509251;31;34293;-77
2023/07/08 06:34:55;;;;;;;;;;;;;;;27.05;38.26;100185.69;4503479;31;33177;-76
2023/07/08 06:37:30;;;;;;;;;;;;;;;26.99;38.40;100183.44;4497616;31;33765;-77
2023/07/08 06:39:59;;;;;;;;;;;;;;;26.94;37.81;100188.28;4502124;31;34346;-77
2023/07/08 06:42:31;;;;;;;;;;;;;;;27.16;38.02;100184.88;4501038;31;34041;-76
2023/07/08 06:45:03;;;;;;;;;;;;;;;27.17;36.42;100184.75;4509316;31;33159;-76
2023/07/08 06:47:33;;;;;;;;;;;;;;;26.71;37.29;100185.50;4497932;31;35322;-77
2023/07/08 06:50:03;;;;;;;;;;;;;;;26.72;37.80;100183.66;4494426;31;34962;-77
2023/07/08 06:52:34;;;;;;;;;;;;;;;27.21;35.46;100182.75;4495939;31;33967;-77
2023/07/08 06:55:03;;;;;;;;;;;;;;;26.92;36.93;100183.09;4480846;31;33406;-78
2023/07/08 06:57:37;;;;;;;;;;;;;;;26.98;34.25;100176.44;4501941;31;34107;-78
2023/07/08 07:00:08;;;;;;;;;;;;;;;26.74;35.18;100179.94;4495854;31;34339;-77
2023/07/08 07:02:40;;;;;;;;;;;;;;;26.78;36.07;100178.75;4498687;31;34099;-77
2023/07/08 07:05:09;;;;;;;;;;;;;;;26.73;37.17;100175.59;4500402;31;32998;-76
2023/07/08 07:07:48;;;;;;;;;;;;;;;26.76;35.83;100167.38;4495228;31;34925;-77
2023/07/08 07:10:20;;;;;;;;;;;;;;;26.38;35.96;100168.28;4502781;31;34289;-77
2023/07/08 07:12:49;;;;;;;;;;;;;;;27.04;34.13;100176.00;4496855;31;34645;-76
2023/07/08 07:15:19;;;;;;;;;;;;;;;27.23;34.33;100171.03;4497434;31;34064;-76
2023/07/08 07:17:49;;;;;;;;;;;;;;;27.19;32.44;100172.22;4499486;31;34607;-77
2023/07/08 07:20:18;;;;;;;;;;;;;;;26.81;32.19;100172.34;4500260;31;34654;-77
2023/07/08 07:22:48;;;;;;;;;;;;;;;27.10;33.63;100170.19;4495031;31;34046;-77
2023/07/08 07:25:16;;;;;;;;;;;;;;;27.23;32.24;100171.03;4497796;31;32757;-77
2023/07/08 07:27:52;;;;;;;;;;;;;;;27.28;32.38;100175.13;4496652;31;33882;-78
2023/07/08 07:30:25;;;;;;;;;;;;;;;27.48;32.86;100168.31;4493976;31;33790;-76
2023/07/08 07:32:55;;;;;;;;;;;;;;;27.65;31.17;100168.72;4499887;31;33949;-77
2023/07/08 07:35:23;;;;;;;;;;;;;;;27.09;32.04;100171.19;4505959;31;33436;-77
2023/07/08 07:37:53;;;;;;;;;;;;;;;27.48;30.13;100174.50;4501742;31;34245;-76
2023/07/08 07:40:25;;;;;;;;;;;;;;;27.96;29.02;100171.72;4494382;31;33560;-78
2023/07/08 07:42:54;;;;;;;;;;;;;;;27.50;30.94;100166.37;4499822;31;34948;-77
2023/07/08 07:45:30;;;;;;;;;;;;;;;27.44;31.92;100162.37;4495676;31;33170;-77
2023/07/08 07:48:00;;;;;;;;;;;;;;;27.97;30.72;100168.06;4495539;31;34188;-78
2023/07/08 07:50:31;;;;;;;;;;;;;;;27.38;32.60;100173.50;4499928;31;34288;-77
2023/07/08 07:52:59;;;;;;;;;;;;;;;27.58;32.14;100170.16;4499486;31;33585;-77
2023/07/08 07:55:29;;;;;;;;;;;;;;;27.53;32.36;100164.31;4499622;31;33321;-76
2023/07/08 07:57:59;;;;;;;;;;;;;;;27.75;31.62;100162.69;4497141;31;34791;-77
2023/07/08 08:00:36;;;;;;;;;;;;;;;27.74;31.86;100163.63;4495840;31;34012;-78
2023/07/08 08:03:06;;;;;;;;;;;;;;;28.20;31.46;100154.75;4493275;31;35121;-77
2023/07/08 08:05:35;;;;;;;;;;;;;;;27.98;31.41;100160.91;4498551;31;34388;-77
2023/07/08 08:08:05;;;;;;;;;;;;;;;28.05;31.33;100152.31;4501808;31;33157;-77
2023/07/08 08:10:36;;;;;;;;;;;;;;;28.01;31.65;100153.53;4494090;31;33940;-77
2023/07/08 08:13:07;;;;;;;;;;;;;;;28.16;29.96;100158.63;4499975;31;33607;-77
2023/07/08 08:15:39;;;;;;;;;;;;;;;28.41;30.71;100157.50;4506374;31;31358;-78
2023/07/08 08:18:09;;;;;;;;;;;;;;;28.60;30.15;100151.56;4500794;31;34536;-78
2023/07/08 08:20:39;;;;;;;;;;;;;;;28.61;29.29;100151.44;4494205;31;34292;-76
2023/07/08 08:23:08;;;;;;;;;;;;;;;28.56;29.63;100142.97;4494501;31;32997;-77
2023/07/08 08:25:37;;;;;;;;;;;;;;;28.49;29.04;100134.59;4495123;31;33173;-77
2023/07/08 08:28:08;;;;;;;;;;;;;;;28.39;30.61;100148.75;4494582;31;34763;-78
2023/07/08 08:30:41;;;;;;;;;;;;;;;28.37;29.43;100138.22;4499801;31;35069;-77
2023/07/08 08:33:11;;;;;;;;;;;;;;;28.62;30.40;100146.94;4494661;31;33947;-78
2023/07/08 08:35:43;;;;;;;;;;;;;;;28.08;30.12;100152.06;4495674;31;32206;-77
2023/07/08 08:38:12;;;;;;;;;;;;;;;28.48;29.22;100142.72;4494619;31;33863;-77
2023/07/08 08:40:41;;;;;;;;;;;;;;;28.58;29.69;100150.81;4499099;31;33651;-78
2023/07/08 08:43:15;;;;;;;;;;;;;;;28.24;30.26;100150.84;4494332;31;33260;-78
2023/07/08 08:45:48;;;;;;;;;;;;;;;28.66;29.45;100143.91;4496443;31;33349;-78
2023/07/08 08:48:20;;;;;;;;;;;;;;;27.82;31.04;100135.44;4498119;31;33764;-76
2023/07/08 08:50:51;;;;;;;;;;;;;;;28.47;29.27;100133.03;4496093;31;34398;-77
2023/07/08 08:53:22;;;;;;;;;;;;;;;28.81;28.83;100132.94;4499267;31;34064;-78
2023/07/08 08:55:59;;;;;;;;;;;;;;;28.37;29.73;100126.72;4494111;31;33434;-75
2023/07/08 08:58:32;;;;;;;;;;;;;;;28.02;30.36;100133.03;4496577;31;34954;-75
2023/07/08 09:01:01;;;;;;;;;;;;;;;28.36;29.64;100128.50;4496119;31;34832;-74
2023/07/08 09:03:39;;;;;;;;;;;;;;;28.79;28.47;100125.03;4494254;31;34633;-75
2023/07/08 09:06:15;;;;;;;;;;;;;;;29.09;27.82;100124.38;4500506;31;33055;-74
2023/07/08 09:08:44;;;;;;;;;;;;;;;28.93;27.69;100126.59;4494641;31;33498;-75
2023/07/08 09:11:20;;;;;;;;;;;;;;;28.81;27.23;100122.25;4493850;31;33867;-75
2023/07/08 09:13:49;;;;;;;;;;;;;;;28.68;27.76;100122.41;4494048;31;33958;-74
2023/07/08 09:16:21;;;;;;;;;;;;;;;28.85;28.55;100127.22;4494664;31;35008;-76
2023/07/08 09:18:56;;;;;;;;;;;;;;;28.89;28.62;100128.63;4499618;31;33228;-75
2023/07/08 09:21:27;;;;;;;;;;;;;;;29.20;27.19;100128.78;4492867;31;34581;-75
2023/07/08 09:24:01;;;;;;;;;;;;;;;29.25;26.87;100123.91;4493948;31;33499;-73
2023/07/08 09:26:30;;;;;;;;;;;;;;;28.60;28.66;100138.22;4492888;31;33416;-75
2023/07/08 09:29:03;;;;;;;;;;;;;;;29.06;26.97;100129.94;4503477;31;33800;-75
2023/07/08 09:31:33;;;;;;;;;;;;;;;28.62;28.07;100125.59;4500931;31;36167;-76
2023/07/08 09:34:08;;;;;;;;;;;;;;;29.04;28.43;100133.69;4493158;31;35350;-77
2023/07/08 09:36:39;;;;;;;;;;;;;;;29.41;28.75;100131.47;4499055;31;33119;-76
2023/07/08 09:39:12;;;;;;;;;;;;;;;29.73;27.51;100130.56;4493438;31;34180;-75
2023/07/08 09:41:43;;;;;;;;;;;;;;;29.74;25.97;100127.78;4498514;31;34447;-76
2023/07/08 09:44:21;;;;;;;;;;;;;;;29.77;25.70;100124.81;4492774;31;33895;-76
2023/07/08 09:46:53;;;;;;;;;;;;;;;30.15;24.74;100125.94;4495998;31;32744;-75
2023/07/08 09:49:25;;;;;;;;;;;;;;;30.15;24.55;100122.44;4496324;31;33539;-77
2023/07/08 09:51:55;;;;;;;;;;;;;;;30.23;25.31;100121.75;4495135;31;34032;-76
2023/07/08 09:54:25;;;;;;;;;;;;;;;29.98;25.56;100119.41;4503866;31;35320;-75
2023/07/08 09:56:59;;;;;;;;;;;;;;;29.94;26.03;100122.50;4497633;31;33210;-75
2023/07/08 09:59:36;;;;;;;;;;;;;;;29.55;25.70;100123.13;4492972;31;34918;-75
2023/07/08 10:02:18;;;;;;;;;;;;;;;29.76;26.51;100111.56;4495164;31;33640;-76
2023/07/08 10:04:49;;;;;;;;;;;;;;;29.93;26.27;100118.97;4497863;31;34539;-75
2023/07/08 10:07:19;;;;;;;;;;;;;;;30.27;25.17;100117.84;4499123;31;33422;-75
2023/07/08 10:09:49;;;;;;;;;;;;;;;29.80;26.26;100114.84;4491971;31;34050;-77
2023/07/08 10:12:18;;;;;;;;;;;;;;;29.83;26.05;100110.06;4494913;31;33837;-76
2023/07/08 10:14:48;;;;;;;;;;;;;;;30.33;25.95;100101.25;4496100;31;33549;-77
2023/07/08 10:17:21;;;;;;;;;;;;;;;30.54;24.78;100103.81;4503879;31;32924;-76
2023/07/08 10:19:52;;;;;;;;;;;;;;;29.97;26.02;100106.19;4500107;31;33932;-76
2023/07/08 10:22:24;;;;;;;;;;;;;;;30.38;25.54;100091.00;4495498;31;34269;-74
2023/07/08 10:24:59;;;;;;;;;;;;;;;30.63;24.48;100095.78;4496515;31;34660;-76
2023/07/08 10:27:34;;;;;;;;;;;;;;;30.55;25.01;100092.13;4502048;31;32668;-75
2023/07/08 10:30:05;;;;;;;;;;;;;;;30.36;25.50;100098.31;4499122;31;33906;-76
2023/07/08 10:32:38;;;;;;;;;;;;;;;31.12;25.11;100093.16;4492821;31;33985;-76
2023/07/08 10:35:13;;;;;;;;;;;;;;;31.18;24.64;100092.56;4492498;31;33375;-76
2023/07/08 10:37:47;;;;;;;;;;;;;;;31.55;24.48;100082.94;4494802;31;33146;-76
2023/07/08 10:40:22;;;;;;;;;;;;;;;31.91;24.86;100088.44;4492051;31;33927;-76
2023/07/08 10:43:01;;;;;;;;;;;;;;;32.01;24.49;100087.44;4497999;31;34936;-76
2023/07/08 10:45:33;;;;;;;;;;;;;;;32.58;22.87;100086.44;4497026;31;34169;-76
2023/07/08 10:48:06;;;;;;;;;;;;;;;32.94;22.47;100089.94;4493557;31;32900;-77
2023/07/08 10:50:40;;;;;;;;;;;;;;;33.15;22.22;100077.03;4493107;31;34893;-76
2023/07/08 10:53:26;;;;;;;;;;;;;;;33.11;22.14;100081.03;4492930;31;34881;-77
2023/07/08 10:56:01;;;;;;;;;;;;;;;33.26;21.61;100077.78;4495317;31;34148;-78
2023/07/08 10:58:43;;;;;;;;;;;;;;;33.25;22.23;100054.56;4497680;31;33727;-78
2023/07/08 11:01:14;;;;;;;;;;;;;;;33.04;22.59;100082.66;4491681;31;35322;-76
2023/07/08 11:03:56;;;;;;;;;;;;;;;32.10;23.40;100083.00;4495453;31;34158;-77
2023/07/08 11:06:27;;;;;;;;;;;;;;;31.11;24.34;100071.88;4496442;31;34126;-77
2023/07/08 11:08:56;;;;;;;;;;;;;;;30.62;25.41;100074.53;4493477;31;33875;-76
2023/07/08 11:11:30;;;;;;;;;;;;;;;30.81;25.04;100079.06;4497853;31;34916;-76
2023/07/08 11:14:00;;;;;;;;;;;;;;;30.93;25.17;100077.06;4492329;31;34447;-75
2023/07/08 11:16:32;;;;;;;;;;;;;;;30.92;25.52;100070.87;4503055;31;35144;-76
2023/07/08 11:19:11;;;;;;;;;;;;;;;30.99;24.17;100072.00;4495320;31;33351;-76
2023/07/08 11:21:43;;;;;;;;;;;;;;;31.34;24.46;100059.84;4493574;31;34046;-76
2023/07/08 11:24:23;;;;;;;;;;;;;;;31.01;25.13;100070.03;4502881;31;34377;-76
2023/07/08 11:26:53;;;;;;;;;;;;;;;30.89;24.69;100071.16;4495948;31;34145;-76
2023/07/08 11:29:25;;;;;;;;;;;;;;;31.13;24.34;100068.03;4495599;31;33280;-75
2023/07/08 11:31:55;;;;;;;;;;;;;;;31.63;23.71;100061.56;4494688;31;33323;-77
2023/07/08 11:34:25;;;;;;;;;;;;;;;32.00;23.96;100052.72;4499906;31;34987;-78
2023/07/08 11:36:57;;;;;;;;;;;;;;;32.68;23.59;100060.31;4495747;31;34920;-76
2023/07/08 11:39:27;;;;;;;;;;;;;;;33.15;23.83;100052.84;4495763;31;33294;-76
2023/07/08 11:42:22;;;;;;;;;;;;;;;33.37;21.94;100050.63;4494504;31;33563;-77
2023/07/08 11:44:52;;;;;;;;;;;;;;;33.42;21.84;100042.06;4493495;31;34166;-77
2023/07/08 11:47:27;;;;;;;;;;;;;;;33.97;21.87;100042.53;4500321;31;34856;-76
2023/07/08 11:49:56;;;;;;;;;;;;;;;33.99;21.41;100035.12;4502842;31;33658;-77
2023/07/08 11:52:28;;;;;;;;;;;;;;;34.24;21.50;100032.56;4494238;31;34743;-76
2023/07/08 11:55:03;;;;;;;;;;;;;;;34.54;21.78;100033.75;4495673;31;35030;-77
2023/07/08 11:57:37;;;;;;;;;;;;;;;34.69;20.71;100030.44;4494494;31;34020;-77
2023/07/08 12:00:13;;;;;;;;;;;;;;;34.64;21.02;100030.94;4499709;31;33797;-76
2023/07/08 12:02:52;;;;;;;;;;;;;;;34.83;20.80;100027.06;4500172;31;33847;-75
2023/07/08 12:05:35;;;;;;;;;;;;;;;35.04;22.02;100022.00;4495957;31;34049;-76
2023/07/08 12:08:12;;;;;;;;;;;;;;;35.35;20.79;100020.44;4500495;31;33789;-78
2023/07/08 12:10:43;;;;;;;;;;;;;;;35.39;19.69;100016.37;4497192;31;33074;-77
2023/07/08 12:13:14;;;;;;;;;;;;;;;35.43;19.47;100018.56;4496618;31;33370;-76
2023/07/08 12:15:43;;;;;;;;;;;;;;;35.23;19.38;100020.81;4501533;31;34220;-76
2023/07/08 12:18:15;;;;;;;;;;;;;;;35.52;20.20;100018.50;4499136;31;34168;-76
2023/07/08 12:20:45;;;;;;;;;;;;;;;35.63;20.70;100021.72;4494503;31;33252;-75
2023/07/08 12:23:16;;;;;;;;;;;;;;;35.64;18.69;100015.31;4493319;31;35062;-78
2023/07/08 12:25:47;;;;;;;;;;;;;;;35.30;20.24;100003.91;4501801;31;33919;-76
2023/07/08 12:28:22;;;;;;;;;;;;;;;35.38;19.59;100004.75;4493444;31;33865;-77
2023/07/08 12:30:51;;;;;;;;;;;;;;;35.16;20.55;100009.03;4492480;31;33404;-77
2023/07/08 12:33:23;;;;;;;;;;;;;;;35.37;20.89;100000.34;4494290;31;31555;-76
2023/07/08 12:35:52;;;;;;;;;;;;;;;35.63;20.23;100005.53;4460729;31;1102125;-77
2023/07/08 12:38:28;;;;;;;;;;;;;;;35.59;19.98;100004.19;4499577;31;34516;-77
2023/07/08 12:40:57;;;;;;;;;;;;;;;36.10;19.94;99998.38;4493992;31;33627;-78
2023/07/08 12:43:27;;;;;;;;;;;;;;;35.79;20.27;100001.91;4493089;31;33710;-76
2023/07/08 12:45:55;;;;;;;;;;;;;;;35.68;20.13;100005.84;4503230;31;33717;-76
2023/07/08 12:48:25;;;;;;;;;;;;;;;36.01;19.46;99996.75;4498865;31;32580;-76
2023/07/08 12:50:54;;;;;;;;;;;;;;;35.97;19.80;99990.00;4502556;31;33852;-78
2023/07/08 12:53:29;;;;;;;;;;;;;;;34.06;22.43;99991.41;4494202;31;35097;-75
2023/07/08 12:55:59;;;;;;;;;;;;;;;34.59;21.28;99982.06;4494959;31;34833;-77
2023/07/08 12:58:30;;;;;;;;;;;;;;;35.51;20.42;99984.47;4496825;31;34511;-76
2023/07/08 13:01:03;;;;;;;;;;;;;;;35.72;21.18;99981.22;4499846;31;32832;-76